Time;durP1;ratioP1;P1;durP2;ratioP2;P2;SDS_P1;SDS_P2;PMS_P1;PMS_P2;Temp;Humidity;BMP_temperature;BMP_pressure;BME280_temperature;BME280_humidity;BME280_pressure;Samples;Min_cycle;Max_cycle;Signal;HPM_P1;HPM_P2
2022/04/03 00:02:11;;;;;;;8.93;4.30;;;-0.30;99.90;;;;;;4438450;32;20197;-69
2022/04/03 00:04:39;;;;;;;7.70;4.07;;;-0.40;99.90;;;;;;4439592;32;20184;-69
2022/04/03 00:07:06;;;;;;;9.17;4.07;;;-0.40;99.90;;;;;;4438500;32;20199;-70
2022/04/03 00:09:34;;;;;;;12.27;4.80;;;-0.40;99.90;;;;;;4439068;32;20167;-69
2022/04/03 00:12:03;;;;;;;8.93;4.60;;;-0.40;99.90;;;;;;4438534;32;20269;-69
2022/04/03 00:14:30;;;;;;;8.90;4.97;;;-0.50;99.90;;;;;;4439614;32;20307;-69
2022/04/03 00:16:57;;;;;;;9.73;4.67;;;-0.50;99.90;;;;;;4438148;32;20166;-69
2022/04/03 00:19:24;;;;;;;10.50;4.60;;;-0.50;99.90;;;;;;4440034;32;20168;-69
2022/04/03 00:21:52;;;;;;;8.80;4.30;;;-0.50;99.90;;;;;;4439332;32;20185;-70
2022/04/03 00:24:19;;;;;;;9.30;4.77;;;-0.50;99.90;;;;;;4441630;32;20200;-69
2022/04/03 00:26:46;;;;;;;6.93;4.20;;;-0.60;99.90;;;;;;4440945;32;20182;-68
2022/04/03 00:29:14;;;;;;;9.37;4.10;;;-0.60;99.90;;;;;;4442014;32;20190;-69
2022/04/03 00:31:41;;;;;;;8.10;4.73;;;-0.50;99.90;;;;;;4442845;32;20165;-69
2022/04/03 00:34:08;;;;;;;10.77;4.80;;;-0.60;99.90;;;;;;4442191;32;20223;-69
2022/04/03 00:36:36;;;;;;;11.40;4.40;;;-0.60;99.90;;;;;;4442971;32;20475;-69
2022/04/03 00:39:03;;;;;;;10.20;4.73;;;-0.60;99.90;;;;;;4441480;32;20212;-69
2022/04/03 00:41:30;;;;;;;8.77;4.57;;;-0.60;99.90;;;;;;4442841;32;20214;-69
2022/04/03 00:43:59;;;;;;;8.20;4.37;;;-0.60;99.90;;;;;;4440920;32;20212;-68
2022/04/03 00:46:27;;;;;;;9.43;4.87;;;-0.60;99.90;;;;;;4440989;32;20197;-68
2022/04/03 00:48:56;;;;;;;8.67;4.30;;;-0.60;99.90;;;;;;4441755;32;20195;-68
2022/04/03 00:51:25;;;;;;;7.93;4.20;;;-0.60;99.90;;;;;;4441820;32;20142;-68
2022/04/03 00:53:52;;;;;;;9.03;4.77;;;-0.60;99.90;;;;;;4443475;32;20229;-68
2022/04/03 00:56:20;;;;;;;9.13;4.60;;;-0.60;99.90;;;;;;4441121;32;20237;-68
2022/04/03 00:58:49;;;;;;;8.57;4.83;;;-0.70;99.90;;;;;;4440456;32;20193;-68
2022/04/03 01:01:17;;;;;;;7.13;5.07;;;-0.70;99.90;;;;;;4442025;32;20175;-68
2022/04/03 01:03:45;;;;;;;11.67;4.87;;;-0.70;99.90;;;;;;4440520;32;20194;-68
2022/04/03 01:06:13;;;;;;;9.90;5.30;;;-0.70;99.90;;;;;;4440829;32;20221;-68
2022/04/03 01:08:42;;;;;;;10.33;5.40;;;-0.70;99.90;;;;;;4440735;32;20221;-68
2022/04/03 01:11:12;;;;;;;9.23;5.40;;;-0.70;99.90;;;;;;4442778;32;20161;-68
2022/04/03 01:13:50;;;;;;;10.17;5.60;;;-0.70;99.90;;;;;;4440144;32;20617;-68
2022/04/03 01:16:17;;;;;;;10.07;5.53;;;-0.70;99.90;;;;;;4441247;32;20170;-68
2022/04/03 01:18:46;;;;;;;12.10;5.60;;;-0.70;99.90;;;;;;4440510;32;20201;-68
2022/04/03 01:21:14;;;;;;;10.13;5.13;;;-0.70;99.90;;;;;;4440371;32;20166;-68
2022/04/03 01:23:41;;;;;;;9.07;5.07;;;-0.70;99.90;;;;;;4440727;32;20226;-68
2022/04/03 01:26:08;;;;;;;9.27;5.23;;;-0.70;99.90;;;;;;4440093;32;20190;-68
2022/04/03 01:28:39;;;;;;;14.67;6.40;;;-0.70;99.90;;;;;;4441436;32;20404;-68
2022/04/03 01:31:06;;;;;;;10.37;5.70;;;-0.70;99.90;;;;;;4441835;32;20473;-68
2022/04/03 01:33:33;;;;;;;13.47;5.80;;;-0.70;99.90;;;;;;4439738;32;20163;-68
2022/04/03 01:36:01;;;;;;;10.47;5.73;;;-0.70;99.90;;;;;;4439943;32;20258;-68
2022/04/03 01:38:28;;;;;;;8.93;5.10;;;-0.80;99.90;;;;;;4440498;32;20197;-68
2022/04/03 01:40:58;;;;;;;10.93;5.77;;;-0.80;99.90;;;;;;4440117;32;20167;-68
2022/04/03 01:43:25;;;;;;;9.17;5.70;;;-0.80;99.90;;;;;;4439701;32;20215;-68
2022/04/03 01:45:53;;;;;;;11.20;5.73;;;-0.80;99.90;;;;;;4440373;32;20188;-68
2022/04/03 01:48:20;;;;;;;9.17;5.30;;;-0.80;99.90;;;;;;4440956;32;20192;-68
2022/04/03 01:50:48;;;;;;;12.23;5.27;;;-0.80;99.90;;;;;;4440865;32;20170;-68
2022/04/03 01:53:15;;;;;;;8.50;5.10;;;-0.90;99.90;;;;;;4440229;32;20197;-68
2022/04/03 01:55:42;;;;;;;8.07;5.20;;;-0.90;99.90;;;;;;4439801;32;20236;-68
2022/04/03 01:58:10;;;;;;;9.33;5.23;;;-0.90;99.90;;;;;;4427668;32;20258;-68
2022/04/03 02:00:38;;;;;;;11.37;5.50;;;-0.90;99.90;;;;;;4440386;32;20178;-68
2022/04/03 02:03:05;;;;;;;7.93;5.23;;;-0.90;99.90;;;;;;4440098;32;20204;-68
2022/04/03 02:05:33;;;;;;;12.43;5.53;;;-1.00;99.90;;;;;;4439756;32;20161;-68
2022/04/03 02:08:00;;;;;;;8.80;5.13;;;-1.00;99.90;;;;;;4439764;32;20174;-68
2022/04/03 02:10:27;;;;;;;8.90;5.23;;;-1.00;99.90;;;;;;4440159;32;20512;-68
2022/04/03 02:12:54;;;;;;;9.00;5.03;;;-1.00;99.90;;;;;;4439980;32;20178;-68
2022/04/03 02:15:23;;;;;;;9.30;4.87;;;-1.00;99.90;;;;;;4439449;32;20174;-68
2022/04/03 02:17:50;;;;;;;12.53;5.90;;;-1.00;99.90;;;;;;4439804;32;20167;-68
2022/04/03 02:20:17;;;;;;;11.83;5.53;;;-1.00;99.90;;;;;;4440321;32;20177;-68
2022/04/03 02:22:45;;;;;;;11.43;5.43;;;-1.10;99.90;;;;;;4439958;32;20246;-68
2022/04/03 02:25:13;;;;;;;12.50;5.50;;;-1.10;99.90;;;;;;4440109;32;20201;-68
2022/04/03 02:27:44;;;;;;;10.27;5.30;;;-1.10;99.90;;;;;;4439832;32;20301;-68
2022/04/03 02:30:13;;;;;;;9.53;5.77;;;-1.10;99.90;;;;;;4441488;32;20181;-68
2022/04/03 02:32:41;;;;;;;10.83;5.70;;;-1.10;99.90;;;;;;4439588;32;20201;-68
2022/04/03 02:35:11;;;;;;;10.47;6.10;;;-1.20;99.90;;;;;;4439656;32;20174;-68
2022/04/03 02:37:39;;;;;;;10.20;5.87;;;-1.20;99.90;;;;;;4439018;32;20179;-68
2022/04/03 02:40:09;;;;;;;11.27;5.83;;;-1.20;99.90;;;;;;4440265;32;20285;-69
2022/04/03 02:42:37;;;;;;;9.57;6.10;;;-1.20;99.90;;;;;;4439256;32;20193;-68
2022/04/03 02:45:05;;;;;;;11.03;6.10;;;-1.20;99.90;;;;;;4439347;32;20170;-69
2022/04/03 02:47:33;;;;;;;13.00;5.87;;;-1.20;99.90;;;;;;4439159;32;20265;-68
2022/04/03 02:50:00;;;;;;;11.00;5.80;;;-1.30;99.90;;;;;;4440194;32;20178;-69
2022/04/03 02:52:28;;;;;;;12.33;5.20;;;-1.30;99.90;;;;;;4439388;32;20171;-69
2022/04/03 02:54:56;;;;;;;11.57;6.00;;;-1.40;99.90;;;;;;4440285;32;20150;-69
2022/04/03 02:57:24;;;;;;;9.70;5.40;;;-1.40;99.90;;;;;;4441131;32;20206;-69
2022/04/03 02:59:51;;;;;;;10.53;5.50;;;-1.40;99.90;;;;;;4425939;32;20567;-69
2022/04/03 03:02:18;;;;;;;8.50;4.90;;;-1.40;99.90;;;;;;4440636;32;20195;-69
2022/04/03 03:04:46;;;;;;;9.97;5.43;;;-1.40;99.90;;;;;;4439558;32;20193;-69
2022/04/03 03:07:14;;;;;;;8.93;4.97;;;-1.40;99.90;;;;;;4439799;32;20167;-69
2022/04/03 03:09:41;;;;;;;8.53;5.00;;;-1.50;99.90;;;;;;4438977;32;20208;-69
2022/04/03 03:12:09;;;;;;;10.63;5.40;;;-1.50;99.90;;;;;;4440149;32;20405;-68
2022/04/03 03:14:36;;;;;;;9.43;4.97;;;-1.50;99.90;;;;;;4438729;32;20185;-68
2022/04/03 03:17:03;;;;;;;8.23;4.87;;;-1.60;99.90;;;;;;4438800;32;20178;-68
2022/04/03 03:19:31;;;;;;;9.20;4.80;;;-1.60;99.90;;;;;;4438424;32;20197;-68
2022/04/03 03:21:58;;;;;;;11.70;5.30;;;-1.60;99.90;;;;;;4438737;32;20194;-68
2022/04/03 03:24:25;;;;;;;9.33;5.00;;;-1.60;99.90;;;;;;4441444;32;20419;-68
2022/04/03 03:26:52;;;;;;;8.60;4.33;;;-1.70;99.90;;;;;;4440144;32;20254;-68
2022/04/03 03:29:20;;;;;;;8.27;4.90;;;-1.70;99.90;;;;;;4438580;32;20166;-68
2022/04/03 03:31:47;;;;;;;10.87;4.77;;;-1.70;99.90;;;;;;4440809;32;20186;-68
2022/04/03 03:34:14;;;;;;;8.63;4.93;;;-1.70;99.90;;;;;;4438311;32;20170;-68
2022/04/03 03:36:41;;;;;;;10.03;4.73;;;-1.70;99.90;;;;;;4438732;32;20217;-68
2022/04/03 03:39:09;;;;;;;7.37;4.40;;;-1.70;99.90;;;;;;4438922;32;20219;-68
2022/04/03 03:41:36;;;;;;;9.73;4.70;;;-1.70;99.90;;;;;;4439202;32;20194;-68
2022/04/03 03:44:09;;;;;;;7.33;4.73;;;-1.80;99.90;;;;;;4439542;32;20174;-68
2022/04/03 03:46:39;;;;;;;8.47;4.30;;;-1.70;99.90;;;;;;4440381;32;20359;-68
2022/04/03 03:49:07;;;;;;;10.03;4.63;;;-1.80;99.90;;;;;;4438332;32;20193;-68
2022/04/03 03:51:35;;;;;;;9.37;4.87;;;-1.70;99.90;;;;;;4438552;32;20419;-68
2022/04/03 03:54:04;;;;;;;9.33;4.77;;;-1.80;99.90;;;;;;4439213;32;20188;-67
2022/04/03 03:56:32;;;;;;;8.70;4.83;;;-1.80;99.90;;;;;;4439420;32;20211;-67
2022/04/03 03:58:59;;;;;;;12.20;4.80;;;-1.80;99.90;;;;;;4438271;32;20209;-68
2022/04/03 04:01:27;;;;;;;9.70;4.73;;;-1.90;99.90;;;;;;4438517;32;20234;-68
2022/04/03 04:03:54;;;;;;;9.43;4.60;;;-1.90;99.90;;;;;;4439447;32;20185;-67
2022/04/03 04:06:21;;;;;;;7.83;4.20;;;-1.90;99.90;;;;;;4437832;32;20205;-68
2022/04/03 04:08:48;;;;;;;8.83;4.90;;;-1.90;99.90;;;;;;4439199;32;20209;-67
2022/04/03 04:11:16;;;;;;;9.57;4.80;;;-1.80;99.90;;;;;;4439947;32;20472;-68
2022/04/03 04:13:44;;;;;;;9.97;4.77;;;-1.90;99.90;;;;;;4439166;32;20166;-67
2022/04/03 04:16:11;;;;;;;8.87;4.90;;;-1.90;99.90;;;;;;4440727;32;20177;-67
2022/04/03 04:18:38;;;;;;;8.93;5.03;;;-1.90;99.90;;;;;;4438680;32;20429;-67
2022/04/03 04:21:06;;;;;;;11.27;5.60;;;-1.90;99.90;;;;;;4438312;32;20193;-67
2022/04/03 04:23:33;;;;;;;10.57;5.67;;;-1.90;99.90;;;;;;4437623;32;20240;-67
2022/04/03 04:26:01;;;;;;;7.80;4.87;;;-2.00;99.90;;;;;;4438797;32;20508;-67
2022/04/03 04:28:28;;;;;;;10.70;5.50;;;-2.00;99.90;;;;;;4438677;32;20223;-67
2022/04/03 04:30:58;;;;;;;10.13;5.20;;;-2.00;99.90;;;;;;4439062;32;20203;-67
2022/04/03 04:33:26;;;;;;;10.53;5.37;;;-2.00;99.90;;;;;;4440436;32;20414;-67
2022/04/03 04:35:56;;;;;;;10.67;5.53;;;-2.00;99.90;;;;;;4437698;32;20178;-68
2022/04/03 04:38:24;;;;;;;10.83;5.13;;;-2.00;99.90;;;;;;4438946;32;20414;-68
2022/04/03 04:40:51;;;;;;;11.07;5.60;;;-1.90;99.90;;;;;;4437920;32;20205;-68
2022/04/03 04:43:20;;;;;;;10.03;5.73;;;-1.90;99.90;;;;;;4438133;32;20433;-67
2022/04/03 04:45:48;;;;;;;10.17;5.70;;;-1.90;99.90;;;;;;4438064;32;20231;-67
2022/04/03 04:48:16;;;;;;;10.93;5.40;;;-1.90;99.90;;;;;;4437781;32;20174;-67
2022/04/03 04:50:44;;;;;;;9.53;5.80;;;-2.00;99.90;;;;;;4438972;32;20186;-67
2022/04/03 04:53:11;;;;;;;12.10;5.33;;;-2.00;99.90;;;;;;4438834;32;20299;-67
2022/04/03 04:55:38;;;;;;;13.60;5.90;;;-2.00;99.90;;;;;;4439134;32;20185;-68
2022/04/03 04:58:05;;;;;;;11.67;5.60;;;-2.00;99.90;;;;;;4438925;32;20176;-69
2022/04/03 05:00:33;;;;;;;11.27;5.73;;;-1.90;99.90;;;;;;4439233;32;20225;-68
2022/04/03 05:03:00;;;;;;;9.47;5.40;;;-1.90;99.90;;;;;;4438379;32;20166;-68
2022/04/03 05:05:29;;;;;;;12.63;6.23;;;-1.80;99.90;;;;;;4438288;32;20226;-68
2022/04/03 05:07:59;;;;;;;8.10;5.17;;;-1.80;99.90;;;;;;4440242;32;20134;-69
2022/04/03 05:10:29;;;;;;;10.17;5.70;;;-1.80;99.90;;;;;;4442099;32;20154;-68
2022/04/03 05:12:57;;;;;;;9.70;5.67;;;-1.80;99.90;;;;;;4440283;32;20181;-68
2022/04/03 05:15:39;;;;;;;10.23;5.63;;;-1.70;99.90;;;;;;4439901;32;20429;-68
2022/04/03 05:18:06;;;;;;;9.67;5.03;;;-1.60;99.90;;;;;;4441939;32;20148;-68
2022/04/03 05:20:34;;;;;;;9.47;5.03;;;-1.60;99.90;;;;;;4441475;32;20680;-68
2022/04/03 05:23:01;;;;;;;8.70;5.00;;;-1.60;99.90;;;;;;4440128;32;20527;-68
2022/04/03 05:25:28;;;;;;;8.53;5.13;;;-1.50;99.90;;;;;;4440840;32;20464;-68
2022/04/03 05:27:56;;;;;;;9.27;5.07;;;-1.50;99.90;;;;;;4441467;32;20158;-68
2022/04/03 05:30:23;;;;;;;9.13;5.10;;;-1.40;99.90;;;;;;4440378;32;20166;-68
2022/04/03 05:32:50;;;;;;;10.43;5.37;;;-1.40;99.90;;;;;;4440424;32;20406;-68
2022/04/03 05:35:20;;;;;;;8.53;5.60;;;-1.40;99.90;;;;;;4440427;32;20186;-67
2022/04/03 05:37:48;;;;;;;10.00;5.13;;;-1.40;99.90;;;;;;4440259;32;20473;-67
2022/04/03 05:40:15;;;;;;;9.83;5.17;;;-1.40;99.90;;;;;;4440190;32;20434;-67
2022/04/03 05:42:43;;;;;;;9.33;5.63;;;-1.30;99.90;;;;;;4441450;32;20184;-67
2022/04/03 05:45:11;;;;;;;9.67;5.70;;;-1.30;99.90;;;;;;4440062;32;20525;-67
2022/04/03 05:47:38;;;;;;;16.80;6.10;;;-1.20;99.90;;;;;;4441364;32;20162;-67
2022/04/03 05:50:10;;;;;;;11.70;6.00;;;-1.20;99.90;;;;;;4440334;32;20505;-67
2022/04/03 05:52:51;;;;;;;11.30;5.90;;;-1.10;99.90;;;;;;4440244;32;20532;-67
2022/04/03 05:55:20;;;;;;;10.53;5.93;;;-1.00;99.90;;;;;;4441385;32;20516;-67
2022/04/03 05:57:48;;;;;;;11.50;6.20;;;-1.00;99.90;;;;;;4440025;32;20419;-67
2022/04/03 06:00:18;;;;;;;11.00;5.77;;;-0.90;99.90;;;;;;4441857;32;20127;-67
2022/04/03 06:02:49;;;;;;;11.53;5.73;;;-0.80;99.90;;;;;;4440998;32;20250;-68
2022/04/03 06:05:21;;;;;;;10.77;5.90;;;-0.80;99.90;;;;;;4439604;32;20208;-67
2022/04/03 06:07:49;;;;;;;10.60;5.67;;;-0.80;99.90;;;;;;4439782;32;20187;-67
2022/04/03 06:10:18;;;;;;;11.37;5.60;;;-0.70;99.90;;;;;;4441305;32;20139;-67
2022/04/03 06:12:57;;;;;;;9.23;5.40;;;-0.70;99.90;;;;;;4439670;32;20567;-67
2022/04/03 06:15:27;;;;;;;11.33;5.30;;;-0.70;99.90;;;;;;4439369;32;20564;-68
2022/04/03 06:17:54;;;;;;;9.97;5.50;;;-0.60;99.90;;;;;;4441244;32;20485;-68
2022/04/03 06:20:22;;;;;;;8.83;5.30;;;-0.60;99.90;;;;;;4438525;32;20197;-68
2022/04/03 06:22:49;;;;;;;8.53;5.57;;;-0.60;99.90;;;;;;4440213;32;20174;-68
2022/04/03 06:25:17;;;;;;;8.70;5.47;;;-0.50;99.90;;;;;;4440892;32;20266;-68
2022/04/03 06:27:44;;;;;;;14.13;5.53;;;-0.40;99.90;;;;;;4439101;32;20249;-68
2022/04/03 06:30:13;;;;;;;11.60;5.67;;;-0.30;99.90;;;;;;4440964;32;20176;-68
2022/04/03 06:32:40;;;;;;;10.63;5.20;;;-0.20;99.90;;;;;;4439477;32;20246;-68
2022/04/03 06:35:08;;;;;;;9.60;5.20;;;-0.20;99.90;;;;;;4438961;32;20198;-68
2022/04/03 06:37:36;;;;;;;7.67;4.97;;;-0.30;99.90;;;;;;4441114;32;20203;-68
2022/04/03 06:40:04;;;;;;;6.33;4.70;;;-0.20;99.90;;;;;;4439699;32;20183;-68
2022/04/03 06:42:32;;;;;;;9.00;5.53;;;-0.20;99.90;;;;;;4440762;32;20142;-68
2022/04/03 06:45:00;;;;;;;10.07;5.20;;;-0.30;99.90;;;;;;4439685;32;20173;-68
2022/04/03 06:47:28;;;;;;;7.97;4.80;;;-0.30;99.90;;;;;;4439230;32;20174;-68
2022/04/03 06:49:55;;;;;;;8.10;4.53;;;-0.30;99.90;;;;;;4439120;32;20178;-68
2022/04/03 06:52:22;;;;;;;7.80;5.07;;;-0.10;99.90;;;;;;4440619;32;20166;-68
2022/04/03 06:54:52;;;;;;;8.37;4.90;;;-0.10;99.90;;;;;;4426262;32;20243;-68
2022/04/03 06:57:20;;;;;;;11.73;4.77;;;-0.20;99.90;;;;;;4438531;32;20190;-68
2022/04/03 06:59:47;;;;;;;6.37;4.47;;;-0.10;99.90;;;;;;4426112;32;20174;-68
2022/04/03 07:02:14;;;;;;;10.30;5.07;;;0.10;99.90;;;;;;4439963;32;20189;-68
2022/04/03 07:04:42;;;;;;;7.70;5.10;;;0.30;99.90;;;;;;4438826;32;20521;-68
2022/04/03 07:07:23;;;;;;;7.80;4.77;;;0.30;99.90;;;;;;4438738;32;20211;-68
2022/04/03 07:09:51;;;;;;;8.27;4.50;;;0.50;99.90;;;;;;4438338;32;20181;-68
2022/04/03 07:12:19;;;;;;;7.53;4.33;;;0.50;99.90;;;;;;4439204;32;20427;-68
2022/04/03 07:14:46;;;;;;;9.90;4.50;;;0.50;99.90;;;;;;4438263;32;20179;-68
2022/04/03 07:17:14;;;;;;;9.03;4.80;;;0.60;99.90;;;;;;4439688;32;20131;-68
2022/04/03 07:19:41;;;;;;;7.20;4.43;;;0.60;99.90;;;;;;4438404;32;20249;-67
2022/04/03 07:22:08;;;;;;;8.70;4.67;;;0.70;99.90;;;;;;4438314;32;20304;-67
2022/04/03 07:24:35;;;;;;;8.00;4.13;;;0.60;99.90;;;;;;4439201;32;20170;-68
2022/04/03 07:27:02;;;;;;;8.70;4.60;;;0.60;99.90;;;;;;4439254;32;20250;-68
2022/04/03 07:29:29;;;;;;;6.03;4.20;;;0.70;99.90;;;;;;4439811;32;20185;-68
2022/04/03 07:31:57;;;;;;;7.43;4.50;;;0.80;99.90;;;;;;4439204;32;20260;-67
2022/04/03 07:34:24;;;;;;;9.37;4.60;;;0.90;99.90;;;;;;4437698;32;20182;-67
2022/04/03 07:36:51;;;;;;;6.93;4.67;;;0.90;99.90;;;;;;4439038;32;20196;-68
2022/04/03 07:39:19;;;;;;;7.10;4.80;;;1.10;99.90;;;;;;4438784;32;20169;-69
2022/04/03 07:41:46;;;;;;;8.30;4.80;;;1.30;99.90;;;;;;4438033;32;20520;-68
2022/04/03 07:44:13;;;;;;;10.60;5.20;;;1.50;99.90;;;;;;4437911;32;20463;-67
2022/04/03 07:46:42;;;;;;;5.03;4.10;;;1.40;99.90;;;;;;4438650;32;20223;-68
2022/04/03 07:49:10;;;;;;;8.00;4.20;;;1.50;99.90;;;;;;4438919;32;20188;-68
2022/04/03 07:51:38;;;;;;;7.67;4.40;;;1.50;99.90;;;;;;4437825;32;20889;-67
2022/04/03 07:54:05;;;;;;;7.87;4.07;;;1.50;99.90;;;;;;4439463;32;20205;-68
2022/04/03 07:56:32;;;;;;;7.20;4.40;;;1.50;99.90;;;;;;4438706;32;20217;-68
2022/04/03 07:58:59;;;;;;;5.57;4.10;;;1.60;99.90;;;;;;4437709;32;20175;-68
2022/04/03 08:01:27;;;;;;;8.40;4.07;;;1.60;99.90;;;;;;4439758;32;20165;-68
2022/04/03 08:03:54;;;;;;;6.50;4.37;;;1.70;99.90;;;;;;4438046;32;20194;-68
2022/04/03 08:06:21;;;;;;;7.53;4.10;;;1.70;99.90;;;;;;4438632;32;20174;-68
2022/04/03 08:08:48;;;;;;;7.33;4.27;;;1.80;99.90;;;;;;4437680;32;20175;-68
2022/04/03 08:11:15;;;;;;;6.43;3.73;;;1.90;99.90;;;;;;4439272;32;20130;-68
2022/04/03 08:13:43;;;;;;;7.20;3.90;;;1.90;99.90;;;;;;4438303;32;20167;-68
2022/04/03 08:16:10;;;;;;;5.87;4.03;;;2.10;99.90;;;;;;4438052;32;20186;-68
2022/04/03 08:18:37;;;;;;;5.77;3.67;;;2.40;99.90;;;;;;4437301;32;20166;-68
2022/04/03 08:21:04;;;;;;;7.20;3.90;;;2.50;99.90;;;;;;4440308;32;20196;-67
2022/04/03 08:23:38;;;;;;;6.07;3.87;;;2.50;99.90;;;;;;4437056;32;20167;-74
2022/04/03 08:26:06;;;;;;;7.70;3.80;;;2.70;99.90;;;;;;4437174;32;20174;-69
2022/04/03 08:28:33;;;;;;;8.40;4.37;;;3.00;99.90;;;;;;4437387;32;20229;-69
2022/04/03 08:31:01;;;;;;;6.00;3.90;;;3.10;99.90;;;;;;4452957;32;20232;-68
2022/04/03 08:33:32;;;;;;;5.70;4.10;;;3.40;99.90;;;;;;4454202;32;20167;-69
2022/04/03 08:35:59;;;;;;;7.63;4.37;;;3.90;99.90;;;;;;4453775;32;20170;-69
2022/04/03 08:38:27;;;;;;;7.53;4.13;;;4.70;99.90;;;;;;4453319;32;20533;-69
2022/04/03 08:40:54;;;;;;;9.23;4.50;;;5.70;99.90;;;;;;4453540;32;20244;-69
2022/04/03 08:43:22;;;;;;;6.90;4.33;;;6.20;99.90;;;;;;4454724;32;20185;-69
2022/04/03 08:45:53;;;;;;;7.63;4.40;;;6.70;99.90;;;;;;4456168;32;20197;-68
2022/04/03 08:48:21;;;;;;;7.53;4.20;;;6.90;99.90;;;;;;4456605;32;20175;-68
2022/04/03 08:50:50;;;;;;;8.27;4.17;;;6.80;99.90;;;;;;4456310;32;20181;-69
2022/04/03 08:53:24;;;;;;;5.80;3.43;;;7.00;99.90;;;;;;4455968;32;20473;-68
2022/04/03 08:55:51;;;;;;;5.57;3.67;;;7.00;99.20;;;;;;4456138;32;20177;-69
2022/04/03 08:58:20;;;;;;;6.20;4.03;;;7.20;97.60;;;;;;4456144;32;20166;-69
2022/04/03 09:00:47;;;;;;;6.40;3.70;;;7.50;97.20;;;;;;4441537;32;20405;-69
2022/04/03 09:03:14;;;;;;;6.07;3.60;;;7.50;97.70;;;;;;4440517;32;20544;-68
2022/04/03 09:05:46;;;;;;;5.90;3.43;;;8.10;99.90;;;;;;4440705;32;20431;-69
2022/04/03 09:08:14;;;;;;;5.40;3.53;;;8.50;95.30;;;;;;4441501;32;20347;-69
2022/04/03 09:10:41;;;;;;;8.20;3.70;;;8.90;95.70;;;;;;4439902;32;20174;-69
2022/04/03 09:13:09;;;;;;;5.00;3.43;;;9.30;94.20;;;;;;4427501;32;20183;-69
2022/04/03 09:15:37;;;;;;;5.63;3.40;;;8.60;83.60;;;;;;4442721;32;20198;-69
2022/04/03 09:18:06;;;;;;;5.90;3.60;;;8.60;90.20;;;;;;4439889;32;20212;-69
2022/04/03 09:20:37;;;;;;;6.33;3.57;;;9.40;93.30;;;;;;4441643;32;20181;-69
2022/04/03 09:23:07;;;;;;;4.77;3.40;;;10.20;83.80;;;;;;4439643;32;20198;-70
2022/04/03 09:25:41;;;;;;;5.53;3.20;;;10.60;89.80;;;;;;4439599;32;20182;-70
2022/04/03 09:28:14;;;;;;;4.00;3.00;;;10.90;85.30;;;;;;4452621;32;20162;-70
2022/04/03 09:30:46;;;;;;;5.33;3.00;;;11.20;78.00;;;;;;4455041;32;20169;-70
2022/04/03 09:33:19;;;;;;;4.37;2.70;;;11.00;76.10;;;;;;4458065;32;20174;-70
2022/04/03 09:36:03;;;;;;;3.47;2.53;;;11.60;73.20;;;;;;4456740;32;20179;-70
2022/04/03 09:38:32;;;;;;;4.00;2.67;;;11.60;71.70;;;;;;4455632;32;20170;-70
2022/04/03 09:41:00;;;;;;;3.97;2.47;;;11.90;70.50;;;;;;4442497;32;20178;-70
2022/04/03 09:43:39;;;;;;;3.37;2.40;;;11.80;63.50;;;;;;4457372;32;20236;-70
2022/04/03 09:46:11;;;;;;;3.40;2.30;;;11.20;65.20;;;;;;4455450;32;20204;-69
2022/04/03 09:48:44;;;;;;;3.90;2.73;;;10.60;65.30;;;;;;4454906;32;20261;-70
2022/04/03 09:51:21;;;;;;;4.67;2.70;;;10.50;65.10;;;;;;4454953;32;20233;-70
2022/04/03 09:54:00;;;;;;;6.10;2.67;;;10.60;66.60;;;;;;4456561;32;20166;-69
2022/04/03 09:56:33;;;;;;;2.90;2.40;;;11.40;70.90;;;;;;4454467;32;20552;-69
2022/04/03 09:59:03;;;;;;;3.37;2.13;;;11.00;62.70;;;;;;4451353;32;20193;-69
2022/04/03 10:01:41;;;;;;;3.43;2.40;;;10.20;60.30;;;;;;4439609;32;20197;-69
2022/04/03 10:04:14;;;;;;;3.60;2.37;;;10.30;66.80;;;;;;4441247;32;20175;-69
2022/04/03 10:06:42;;;;;;;4.30;2.30;;;10.90;67.50;;;;;;4440000;32;20166;-67
2022/04/03 10:09:15;;;;;;;3.97;2.20;;;11.20;65.50;;;;;;4439814;32;20189;-70
2022/04/03 10:11:42;;;;;;;3.37;2.60;;;11.20;66.10;;;;;;4439863;32;20170;-70
2022/04/03 10:14:11;;;;;;;3.23;2.13;;;11.80;59.50;;;;;;4439259;32;20170;-70
2022/04/03 10:16:39;;;;;;;3.30;2.40;;;11.20;55.10;;;;;;4440081;32;20179;-70
2022/04/03 10:19:07;;;;;;;5.20;2.60;;;11.80;57.50;;;;;;4439851;32;20170;-71
2022/04/03 10:21:39;;;;;;;3.20;2.43;;;12.30;57.90;;;;;;4441120;32;20201;-71
2022/04/03 10:24:15;;;;;;;4.87;2.50;;;13.30;57.80;;;;;;4440185;32;20194;-71
2022/04/03 10:26:56;;;;;;;3.80;2.33;;;13.90;56.10;;;;;;4438358;32;20548;-71
2022/04/03 10:29:24;;;;;;;3.03;2.53;;;14.30;54.30;;;;;;4440167;32;20249;-71
2022/04/03 10:31:58;;;;;;;4.17;2.50;;;13.50;52.30;;;;;;4438852;32;20233;-70
2022/04/03 10:34:27;;;;;;;4.30;2.37;;;13.00;55.00;;;;;;4439909;32;20155;-70
2022/04/03 10:36:54;;;;;;;3.90;2.37;;;12.50;55.00;;;;;;4439294;32;20202;-70
2022/04/03 10:39:29;;;;;;;3.90;2.23;;;11.60;54.40;;;;;;4438867;32;20528;-69
2022/04/03 10:42:20;;;;;;;3.70;2.40;;;10.70;56.00;;;;;;4438688;32;20185;-70
2022/04/03 10:45:17;;;;;;;5.37;2.50;;;10.70;60.30;;;;;;4438817;32;20201;-70
2022/04/03 10:47:51;;;;;;;4.03;2.57;;;11.70;56.30;;;;;;4440399;32;20134;-70
2022/04/03 10:50:19;;;;;;;3.17;2.40;;;11.50;55.30;;;;;;4438962;32;20175;-70
2022/04/03 10:52:46;;;;;;;4.17;2.40;;;10.70;51.70;;;;;;4439880;32;20181;-70
2022/04/03 10:55:16;;;;;;;3.40;2.30;;;9.70;51.50;;;;;;4440528;32;20193;-70
2022/04/03 10:57:48;;;;;;;4.07;2.33;;;9.50;53.70;;;;;;4438872;32;20174;-70
2022/04/03 11:00:16;;;;;;;3.03;2.40;;;9.10;54.30;;;;;;4440279;32;20134;-70
2022/04/03 11:03:00;;;;;;;2.73;1.93;;;9.90;54.90;;;;;;4438841;32;20178;-70
2022/04/03 11:05:30;;;;;;;2.87;2.30;;;10.10;50.80;;;;;;4438289;32;20178;-70
2022/04/03 11:08:01;;;;;;;3.03;2.20;;;9.90;50.50;;;;;;4440253;32;20469;-70
2022/04/03 11:10:54;;;;;;;3.47;2.33;;;10.80;54.90;;;;;;4438626;32;20182;-69
2022/04/03 11:13:43;;;;;;;3.57;2.37;;;12.50;56.80;;;;;;4437021;32;20586;-69
2022/04/03 11:16:13;;;;;;;6.60;2.40;;;14.00;52.20;;;;;;4426042;32;20175;-69
2022/04/03 11:18:50;;;;;;;2.63;2.23;;;12.30;46.50;;;;;;4438990;32;20409;-68
2022/04/03 11:21:30;;;;;;;3.70;2.47;;;12.30;53.10;;;;;;4438950;32;20524;-69
2022/04/03 11:24:09;;;;;;;4.10;2.40;;;12.00;51.00;;;;;;4439074;32;20441;-69
2022/04/03 11:26:38;;;;;;;3.13;2.33;;;12.50;51.20;;;;;;4446211;32;20178;-70
2022/04/03 11:29:08;;;;;;;3.57;2.40;;;12.10;51.70;;;;;;4438313;32;20516;-69
2022/04/03 11:31:43;;;;;;;3.67;2.40;;;11.70;51.20;;;;;;4437611;32;20209;-69
2022/04/03 11:34:41;;;;;;;3.87;2.47;;;11.40;52.40;;;;;;4438941;32;20165;-73
2022/04/03 11:37:13;;;;;;;3.33;2.50;;;11.80;53.10;;;;;;4437417;32;20178;-73
2022/04/03 11:40:13;;;;;;;4.17;2.60;;;13.00;52.00;;;;;;4438379;32;20178;-72
2022/04/03 11:46:51;;;;;;;2.93;2.20;;;14.30;46.30;;;;;;4421584;32;20164;-72
2022/04/03 11:49:30;;;;;;;3.87;2.43;;;14.90;48.70;;;;;;4409516;32;20171;-72
2022/04/03 11:55:34;;;;;;;4.37;2.77;;;16.60;41.00;;;;;;4348789;33;20640;-72
2022/04/03 11:58:44;;;;;;;4.10;2.60;;;16.20;39.80;;;;;;4361352;32;20441;-72
2022/04/03 12:01:51;;;;;;;3.83;2.97;;;15.80;43.50;;;;;;4361418;32;20174;-72
2022/04/03 12:04:43;;;;;;;3.97;2.70;;;16.60;39.50;;;;;;4349045;33;20225;-72
2022/04/03 12:07:38;;;;;;;3.30;2.60;;;14.00;41.40;;;;;;4360883;33;20246;-72
2022/04/03 12:11:14;;;;;;;3.57;2.60;;;12.50;44.80;;;;;;4356568;32;20251;-72
2022/04/03 12:14:31;;;;;;;5.53;3.00;;;14.10;46.20;;;;;;4289133;33;20181;-72
2022/04/03 12:17:38;;;;;;;5.10;3.07;;;14.80;44.30;;;;;;4300180;33;20284;-71
2022/04/03 12:20:45;;;;;;;3.67;2.80;;;13.90;44.40;;;;;;4290785;33;20176;-71
2022/04/03 12:24:00;;;;;;;4.70;3.17;;;12.50;47.70;;;;;;4301630;33;20179;-71
2022/04/03 12:26:59;;;;;;;4.57;2.80;;;11.90;48.80;;;;;;4290069;33;20245;-71
2022/04/03 12:29:29;;;;;;;4.70;2.93;;;11.50;50.90;;;;;;4289866;33;20482;-71
2022/04/03 12:32:28;;;;;;;3.60;2.90;;;13.00;50.20;;;;;;4312183;33;20267;-71
2022/04/03 12:34:56;;;;;;;4.67;2.93;;;12.50;47.20;;;;;;4346337;33;20554;-72
2022/04/03 12:37:32;;;;;;;4.77;2.67;;;12.00;47.90;;;;;;4346006;33;20290;-72
2022/04/03 12:40:11;;;;;;;3.73;2.53;;;11.90;47.90;;;;;;4333900;33;20191;-72
2022/04/03 12:42:40;;;;;;;3.80;2.80;;;10.20;46.90;;;;;;4345980;33;20190;-71
2022/04/03 12:45:13;;;;;;;6.37;2.77;;;9.60;49.90;;;;;;4333939;33;20172;-71
2022/04/03 12:47:59;;;;;;;3.80;2.77;;;8.90;50.90;;;;;;4345934;33;20408;-72
2022/04/03 12:50:41;;;;;;;5.60;2.83;;;9.50;52.70;;;;;;4367370;32;20204;-71
2022/04/03 12:53:18;;;;;;;3.33;2.40;;;9.70;52.50;;;;;;4392983;32;20202;-71
2022/04/03 12:56:04;;;;;;;3.70;2.27;;;9.30;49.70;;;;;;4393468;32;20183;-71
2022/04/03 12:58:48;;;;;;;5.07;2.80;;;9.60;52.60;;;;;;4393084;32;20238;-71
2022/04/03 13:01:41;;;;;;;4.43;2.47;;;9.40;50.60;;;;;;4406443;32;20190;-71
2022/04/03 13:04:31;;;;;;;4.00;2.33;;;9.50;53.70;;;;;;4433953;32;20449;-71
2022/04/03 13:07:03;;;;;;;6.50;2.57;;;10.00;51.30;;;;;;4437783;32;20256;-70
2022/04/03 13:09:48;;;;;;;5.50;2.90;;;11.20;54.30;;;;;;4437560;32;20182;-69
2022/04/03 13:12:27;;;;;;;3.50;2.63;;;12.00;51.20;;;;;;4437486;32;20178;-70
2022/04/03 13:14:59;;;;;;;3.60;2.60;;;12.40;49.20;;;;;;4437754;32;20255;-69